sensor_id;sensor_type;location;lat;lon;timestamp;temperature;humidity
3564;DHT22;1796;52.388;13.096;2024-02-04T00:01:52;6.60;99.90
3564;DHT22;1796;52.388;13.096;2024-02-04T00:04:19;6.60;99.90
3564;DHT22;1796;52.388;13.096;2024-02-04T00:06:46;6.50;99.90
3564;DHT22;1796;52.388;13.096;2024-02-04T00:09:13;6.50;99.90
3564;DHT22;1796;52.388;13.096;2024-02-04T00:11:41;6.50;99.90
3564;DHT22;1796;52.388;13.096;2024-02-04T00:14:08;6.40;99.90
3564;DHT22;1796;52.388;13.096;2024-02-04T00:16:35;6.40;99.90
3564;DHT22;1796;52.388;13.096;2024-02-04T00:19:02;6.50;99.90
3564;DHT22;1796;52.388;13.096;2024-02-04T00:21:29;6.40;99.90
3564;DHT22;1796;52.388;13.096;2024-02-04T00:23:56;6.40;99.90
3564;DHT22;1796;52.388;13.096;2024-02-04T00:26:23;6.30;99.90
3564;DHT22;1796;52.388;13.096;2024-02-04T00:28:51;6.30;99.90
3564;DHT22;1796;52.388;13.096;2024-02-04T00:31:18;6.30;99.90
3564;DHT22;1796;52.388;13.096;2024-02-04T00:33:45;6.40;99.90
3564;DHT22;1796;52.388;13.096;2024-02-04T00:36:12;6.20;99.90
3564;DHT22;1796;52.388;13.096;2024-02-04T00:38:38;6.20;99.90
3564;DHT22;1796;52.388;13.096;2024-02-04T00:41:05;6.10;99.90
3564;DHT22;1796;52.388;13.096;2024-02-04T00:43:32;6.10;99.90
3564;DHT22;1796;52.388;13.096;2024-02-04T00:46:00;6.20;99.90
3564;DHT22;1796;52.388;13.096;2024-02-04T00:48:28;6.20;99.90
3564;DHT22;1796;52.388;13.096;2024-02-04T00:50:55;6.20;99.90
3564;DHT22;1796;52.388;13.096;2024-02-04T00:53:22;6.20;99.90
3564;DHT22;1796;52.388;13.096;2024-02-04T00:55:49;6.20;99.90
3564;DHT22;1796;52.388;13.096;2024-02-04T00:58:15;6.20;99.90
3564;DHT22;1796;52.388;13.096;2024-02-04T01:00:42;6.20;99.90
3564;DHT22;1796;52.388;13.096;2024-02-04T01:03:10;6.20;99.90
3564;DHT22;1796;52.388;13.096;2024-02-04T01:05:37;6.30;99.90
3564;DHT22;1796;52.388;13.096;2024-02-04T01:08:04;6.30;99.90
3564;DHT22;1796;52.388;13.096;2024-02-04T01:10:31;6.30;99.90
3564;DHT22;1796;52.388;13.096;2024-02-04T01:12:58;6.30;99.90
3564;DHT22;1796;52.388;13.096;2024-02-04T01:15:25;6.30;99.90
3564;DHT22;1796;52.388;13.096;2024-02-04T01:17:52;6.20;99.90
3564;DHT22;1796;52.388;13.096;2024-02-04T01:20:21;6.20;99.90
3564;DHT22;1796;52.388;13.096;2024-02-04T01:22:48;6.20;99.90
3564;DHT22;1796;52.388;13.096;2024-02-04T01:25:15;6.10;99.90
3564;DHT22;1796;52.388;13.096;2024-02-04T01:27:41;6.10;99.90
3564;DHT22;1796;52.388;13.096;2024-02-04T01:30:08;6.00;99.90
3564;DHT22;1796;52.388;13.096;2024-02-04T01:32:35;6.00;99.90
3564;DHT22;1796;52.388;13.096;2024-02-04T01:35:03;5.90;99.90
3564;DHT22;1796;52.388;13.096;2024-02-04T01:37:31;5.90;99.90
3564;DHT22;1796;52.388;13.096;2024-02-04T01:39:58;5.90;99.90
3564;DHT22;1796;52.388;13.096;2024-02-04T01:42:25;5.80;99.90
3564;DHT22;1796;52.388;13.096;2024-02-04T01:44:52;5.70;99.90
3564;DHT22;1796;52.388;13.096;2024-02-04T01:47:19;5.80;99.90
3564;DHT22;1796;52.388;13.096;2024-02-04T01:49:46;5.80;99.90
3564;DHT22;1796;52.388;13.096;2024-02-04T01:52:13;5.90;99.90
3564;DHT22;1796;52.388;13.096;2024-02-04T01:54:42;6.20;99.90
3564;DHT22;1796;52.388;13.096;2024-02-04T01:57:10;6.00;99.90
3564;DHT22;1796;52.388;13.096;2024-02-04T01:59:39;6.00;99.90
3564;DHT22;1796;52.388;13.096;2024-02-04T02:02:06;6.10;99.90
3564;DHT22;1796;52.388;13.096;2024-02-04T02:04:33;6.20;99.90
3564;DHT22;1796;52.388;13.096;2024-02-04T02:07:00;6.20;99.90
3564;DHT22;1796;52.388;13.096;2024-02-04T02:09:28;6.40;99.90
3564;DHT22;1796;52.388;13.096;2024-02-04T02:12:01;6.30;99.90
3564;DHT22;1796;52.388;13.096;2024-02-04T02:14:33;6.30;99.90
3564;DHT22;1796;52.388;13.096;2024-02-04T02:17:05;6.30;99.90
3564;DHT22;1796;52.388;13.096;2024-02-04T02:19:40;6.40;99.90
3564;DHT22;1796;52.388;13.096;2024-02-04T02:22:18;6.30;99.90
3564;DHT22;1796;52.388;13.096;2024-02-04T02:24:52;6.30;99.90
3564;DHT22;1796;52.388;13.096;2024-02-04T02:27:19;6.20;99.90
3564;DHT22;1796;52.388;13.096;2024-02-04T02:29:45;6.30;99.90
3564;DHT22;1796;52.388;13.096;2024-02-04T02:32:12;6.40;99.90
3564;DHT22;1796;52.388;13.096;2024-02-04T02:34:40;6.40;99.90
3564;DHT22;1796;52.388;13.096;2024-02-04T02:37:15;6.40;99.90
3564;DHT22;1796;52.388;13.096;2024-02-04T02:39:48;6.30;99.90
3564;DHT22;1796;52.388;13.096;2024-02-04T02:42:18;6.20;99.90
3564;DHT22;1796;52.388;13.096;2024-02-04T02:44:47;6.10;99.90
3564;DHT22;1796;52.388;13.096;2024-02-04T02:47:15;6.10;99.90
3564;DHT22;1796;52.388;13.096;2024-02-04T02:49:43;6.30;99.90
3564;DHT22;1796;52.388;13.096;2024-02-04T02:52:10;6.30;99.90
3564;DHT22;1796;52.388;13.096;2024-02-04T02:54:37;6.40;99.90
3564;DHT22;1796;52.388;13.096;2024-02-04T02:57:04;6.40;99.90
3564;DHT22;1796;52.388;13.096;2024-02-04T02:59:33;6.40;99.90
3564;DHT22;1796;52.388;13.096;2024-02-04T03:02:00;6.40;99.90
3564;DHT22;1796;52.388;13.096;2024-02-04T03:04:27;6.30;99.90
3564;DHT22;1796;52.388;13.096;2024-02-04T03:06:54;6.30;99.90
3564;DHT22;1796;52.388;13.096;2024-02-04T03:09:21;6.30;99.90
3564;DHT22;1796;52.388;13.096;2024-02-04T03:11:48;6.30;99.90
3564;DHT22;1796;52.388;13.096;2024-02-04T03:14:16;6.20;99.90
3564;DHT22;1796;52.388;13.096;2024-02-04T03:16:45;6.30;99.90
3564;DHT22;1796;52.388;13.096;2024-02-04T03:19:12;6.30;99.90
3564;DHT22;1796;52.388;13.096;2024-02-04T03:21:39;6.30;99.90
3564;DHT22;1796;52.388;13.096;2024-02-04T03:24:06;6.40;99.90
3564;DHT22;1796;52.388;13.096;2024-02-04T03:26:33;6.30;99.90
3564;DHT22;1796;52.388;13.096;2024-02-04T03:28:59;6.30;99.90
3564;DHT22;1796;52.388;13.096;2024-02-04T03:31:30;6.30;99.90
3564;DHT22;1796;52.388;13.096;2024-02-04T03:33:59;6.30;99.90
3564;DHT22;1796;52.388;13.096;2024-02-04T03:36:25;6.30;99.90
3564;DHT22;1796;52.388;13.096;2024-02-04T03:38:52;6.30;99.90
3564;DHT22;1796;52.388;13.096;2024-02-04T03:41:19;6.30;99.90
3564;DHT22;1796;52.388;13.096;2024-02-04T03:43:47;6.20;99.90
3564;DHT22;1796;52.388;13.096;2024-02-04T03:46:14;6.20;99.90
3564;DHT22;1796;52.388;13.096;2024-02-04T03:48:41;6.00;99.90
3564;DHT22;1796;52.388;13.096;2024-02-04T03:51:15;6.00;99.90
3564;DHT22;1796;52.388;13.096;2024-02-04T03:53:42;5.90;99.90
3564;DHT22;1796;52.388;13.096;2024-02-04T03:56:09;5.80;99.90
3564;DHT22;1796;52.388;13.096;2024-02-04T03:58:36;5.80;99.90
3564;DHT22;1796;52.388;13.096;2024-02-04T04:01:03;5.80;99.90
3564;DHT22;1796;52.388;13.096;2024-02-04T04:03:30;5.70;99.90
3564;DHT22;1796;52.388;13.096;2024-02-04T04:05:57;5.70;99.90
3564;DHT22;1796;52.388;13.096;2024-02-04T04:08:25;5.70;99.90
3564;DHT22;1796;52.388;13.096;2024-02-04T04:10:52;5.70;99.90
3564;DHT22;1796;52.388;13.096;2024-02-04T04:13:19;5.60;99.90
3564;DHT22;1796;52.388;13.096;2024-02-04T04:15:46;5.60;99.90
3564;DHT22;1796;52.388;13.096;2024-02-04T04:18:13;5.50;99.90
3564;DHT22;1796;52.388;13.096;2024-02-04T04:20:40;5.40;99.90
3564;DHT22;1796;52.388;13.096;2024-02-04T04:23:07;5.40;99.90
3564;DHT22;1796;52.388;13.096;2024-02-04T04:25:35;5.40;99.90
3564;DHT22;1796;52.388;13.096;2024-02-04T04:28:02;5.30;99.90
3564;DHT22;1796;52.388;13.096;2024-02-04T04:30:29;5.40;99.90
3564;DHT22;1796;52.388;13.096;2024-02-04T04:32:56;5.40;99.90
3564;DHT22;1796;52.388;13.096;2024-02-04T04:35:24;5.40;99.90
3564;DHT22;1796;52.388;13.096;2024-02-04T04:37:51;5.40;99.90
3564;DHT22;1796;52.388;13.096;2024-02-04T04:40:18;5.30;99.90
3564;DHT22;1796;52.388;13.096;2024-02-04T04:42:47;5.40;99.90
3564;DHT22;1796;52.388;13.096;2024-02-04T04:45:14;5.40;99.90
3564;DHT22;1796;52.388;13.096;2024-02-04T04:47:41;5.40;99.90
3564;DHT22;1796;52.388;13.096;2024-02-04T04:50:08;5.40;99.90
3564;DHT22;1796;52.388;13.096;2024-02-04T04:52:35;5.40;99.90
3564;DHT22;1796;52.388;13.096;2024-02-04T04:55:02;5.50;99.90
3564;DHT22;1796;52.388;13.096;2024-02-04T04:57:29;5.50;99.90
3564;DHT22;1796;52.388;13.096;2024-02-04T04:59:57;5.50;99.90
3564;DHT22;1796;52.388;13.096;2024-02-04T05:02:29;5.50;99.90
3564;DHT22;1796;52.388;13.096;2024-02-04T05:04:56;5.50;99.90
3564;DHT22;1796;52.388;13.096;2024-02-04T05:07:23;5.50;99.90
3564;DHT22;1796;52.388;13.096;2024-02-04T05:09:50;5.60;99.90
3564;DHT22;1796;52.388;13.096;2024-02-04T05:12:17;5.60;99.90
3564;DHT22;1796;52.388;13.096;2024-02-04T05:14:44;5.60;99.90
3564;DHT22;1796;52.388;13.096;2024-02-04T05:17:12;5.50;99.90
3564;DHT22;1796;52.388;13.096;2024-02-04T05:19:41;5.50;99.90
3564;DHT22;1796;52.388;13.096;2024-02-04T05:22:08;5.50;99.90
3564;DHT22;1796;52.388;13.096;2024-02-04T05:24:35;5.50;99.90
3564;DHT22;1796;52.388;13.096;2024-02-04T05:27:02;5.60;99.90
3564;DHT22;1796;52.388;13.096;2024-02-04T05:29:30;5.50;99.90
3564;DHT22;1796;52.388;13.096;2024-02-04T05:31:57;5.60;99.90
3564;DHT22;1796;52.388;13.096;2024-02-04T05:34:25;5.60;99.90
3564;DHT22;1796;52.388;13.096;2024-02-04T05:36:52;5.60;99.90
3564;DHT22;1796;52.388;13.096;2024-02-04T05:39:19;5.60;99.90
3564;DHT22;1796;52.388;13.096;2024-02-04T05:41:49;5.60;99.90
3564;DHT22;1796;52.388;13.096;2024-02-04T05:44:15;5.50;99.90
3564;DHT22;1796;52.388;13.096;2024-02-04T05:46:42;5.60;99.90
3564;DHT22;1796;52.388;13.096;2024-02-04T05:49:09;5.70;99.90
3564;DHT22;1796;52.388;13.096;2024-02-04T05:51:39;5.70;99.90
3564;DHT22;1796;52.388;13.096;2024-02-04T05:54:07;5.70;99.90
3564;DHT22;1796;52.388;13.096;2024-02-04T05:56:34;5.70;99.90
3564;DHT22;1796;52.388;13.096;2024-02-04T05:59:01;5.70;99.90
3564;DHT22;1796;52.388;13.096;2024-02-04T06:01:28;5.70;99.90
3564;DHT22;1796;52.388;13.096;2024-02-04T06:03:55;5.80;99.90
3564;DHT22;1796;52.388;13.096;2024-02-04T06:06:22;5.80;99.90
3564;DHT22;1796;52.388;13.096;2024-02-04T06:08:51;5.80;99.90
3564;DHT22;1796;52.388;13.096;2024-02-04T06:11:18;5.90;99.90
3564;DHT22;1796;52.388;13.096;2024-02-04T06:13:45;5.90;99.90
3564;DHT22;1796;52.388;13.096;2024-02-04T06:16:12;5.90;99.90
3564;DHT22;1796;52.388;13.096;2024-02-04T06:18:39;5.90;99.90
3564;DHT22;1796;52.388;13.096;2024-02-04T06:21:07;5.90;99.90
3564;DHT22;1796;52.388;13.096;2024-02-04T06:23:34;5.90;99.90
3564;DHT22;1796;52.388;13.096;2024-02-04T06:26:01;6.00;99.90
3564;DHT22;1796;52.388;13.096;2024-02-04T06:28:28;6.00;99.90
3564;DHT22;1796;52.388;13.096;2024-02-04T06:30:55;6.10;99.90
3564;DHT22;1796;52.388;13.096;2024-02-04T06:33:22;6.00;99.90
3564;DHT22;1796;52.388;13.096;2024-02-04T06:35:50;6.00;99.90
3564;DHT22;1796;52.388;13.096;2024-02-04T06:38:17;6.00;99.90
3564;DHT22;1796;52.388;13.096;2024-02-04T06:40:44;6.00;99.90
3564;DHT22;1796;52.388;13.096;2024-02-04T06:43:12;6.00;99.90
3564;DHT22;1796;52.388;13.096;2024-02-04T06:45:39;6.00;99.90
3564;DHT22;1796;52.388;13.096;2024-02-04T06:48:07;6.00;99.90
3564;DHT22;1796;52.388;13.096;2024-02-04T06:50:35;6.10;99.90
3564;DHT22;1796;52.388;13.096;2024-02-04T06:53:03;6.20;99.90
3564;DHT22;1796;52.388;13.096;2024-02-04T06:55:30;6.20;99.90
3564;DHT22;1796;52.388;13.096;2024-02-04T06:57:57;6.20;99.90
3564;DHT22;1796;52.388;13.096;2024-02-04T07:00:25;6.30;99.90
3564;DHT22;1796;52.388;13.096;2024-02-04T07:02:52;6.30;99.90
3564;DHT22;1796;52.388;13.096;2024-02-04T07:05:19;6.40;99.90
3564;DHT22;1796;52.388;13.096;2024-02-04T07:07:47;6.50;99.90
3564;DHT22;1796;52.388;13.096;2024-02-04T07:10:15;6.50;99.90
3564;DHT22;1796;52.388;13.096;2024-02-04T07:12:42;6.50;99.90
3564;DHT22;1796;52.388;13.096;2024-02-04T07:15:09;6.50;99.90
3564;DHT22;1796;52.388;13.096;2024-02-04T07:17:37;6.40;99.90
3564;DHT22;1796;52.388;13.096;2024-02-04T07:20:05;6.50;99.90
3564;DHT22;1796;52.388;13.096;2024-02-04T07:22:32;6.50;99.90
3564;DHT22;1796;52.388;13.096;2024-02-04T07:25:00;6.60;99.90
3564;DHT22;1796;52.388;13.096;2024-02-04T07:27:27;6.50;99.90
3564;DHT22;1796;52.388;13.096;2024-02-04T07:29:54;6.50;99.90
3564;DHT22;1796;52.388;13.096;2024-02-04T07:32:23;6.50;99.90
3564;DHT22;1796;52.388;13.096;2024-02-04T07:34:51;6.50;99.90
3564;DHT22;1796;52.388;13.096;2024-02-04T07:37:18;6.50;99.90
3564;DHT22;1796;52.388;13.096;2024-02-04T07:39:45;6.50;99.90
3564;DHT22;1796;52.388;13.096;2024-02-04T07:42:12;6.50;99.90
3564;DHT22;1796;52.388;13.096;2024-02-04T07:44:39;6.50;99.90
3564;DHT22;1796;52.388;13.096;2024-02-04T07:47:09;6.50;99.90
3564;DHT22;1796;52.388;13.096;2024-02-04T07:49:39;6.50;99.90
3564;DHT22;1796;52.388;13.096;2024-02-04T07:52:07;6.50;99.90
3564;DHT22;1796;52.388;13.096;2024-02-04T07:54:34;6.40;99.90
3564;DHT22;1796;52.388;13.096;2024-02-04T07:57:01;6.50;99.90
3564;DHT22;1796;52.388;13.096;2024-02-04T07:59:28;6.60;99.90
3564;DHT22;1796;52.388;13.096;2024-02-04T08:01:55;6.50;99.90
3564;DHT22;1796;52.388;13.096;2024-02-04T08:04:22;6.70;99.90
3564;DHT22;1796;52.388;13.096;2024-02-04T08:06:49;6.60;99.90
3564;DHT22;1796;52.388;13.096;2024-02-04T08:09:21;6.70;99.90
3564;DHT22;1796;52.388;13.096;2024-02-04T08:11:48;6.80;99.90
3564;DHT22;1796;52.388;13.096;2024-02-04T08:14:14;6.90;99.90
3564;DHT22;1796;52.388;13.096;2024-02-04T08:16:42;6.90;99.90
3564;DHT22;1796;52.388;13.096;2024-02-04T08:19:11;7.00;99.90
3564;DHT22;1796;52.388;13.096;2024-02-04T08:21:39;7.00;99.90
3564;DHT22;1796;52.388;13.096;2024-02-04T08:24:06;7.00;99.90
3564;DHT22;1796;52.388;13.096;2024-02-04T08:26:35;7.00;99.90
3564;DHT22;1796;52.388;13.096;2024-02-04T08:29:02;7.00;99.90
3564;DHT22;1796;52.388;13.096;2024-02-04T08:31:31;7.00;99.90
3564;DHT22;1796;52.388;13.096;2024-02-04T08:33:58;7.10;99.90
3564;DHT22;1796;52.388;13.096;2024-02-04T08:36:25;7.10;99.90
3564;DHT22;1796;52.388;13.096;2024-02-04T08:38:52;7.20;99.90
3564;DHT22;1796;52.388;13.096;2024-02-04T08:41:19;7.20;99.90
3564;DHT22;1796;52.388;13.096;2024-02-04T08:43:47;7.20;99.90
3564;DHT22;1796;52.388;13.096;2024-02-04T08:46:14;7.20;99.90
3564;DHT22;1796;52.388;13.096;2024-02-04T08:48:41;7.30;99.90
3564;DHT22;1796;52.388;13.096;2024-02-04T08:51:10;7.40;99.90
3564;DHT22;1796;52.388;13.096;2024-02-04T08:53:37;7.40;99.90
3564;DHT22;1796;52.388;13.096;2024-02-04T08:56:06;7.40;99.90
3564;DHT22;1796;52.388;13.096;2024-02-04T08:58:33;7.50;99.90
3564;DHT22;1796;52.388;13.096;2024-02-04T09:01:01;7.50;99.90
3564;DHT22;1796;52.388;13.096;2024-02-04T09:03:28;7.50;99.90
3564;DHT22;1796;52.388;13.096;2024-02-04T09:05:55;7.60;99.90
3564;DHT22;1796;52.388;13.096;2024-02-04T09:08:22;7.70;99.90
3564;DHT22;1796;52.388;13.096;2024-02-04T09:10:49;7.70;99.90
3564;DHT22;1796;52.388;13.096;2024-02-04T09:13:16;7.70;99.90
3564;DHT22;1796;52.388;13.096;2024-02-04T09:15:43;7.70;99.90
3564;DHT22;1796;52.388;13.096;2024-02-04T09:18:11;7.70;99.90
3564;DHT22;1796;52.388;13.096;2024-02-04T09:20:38;7.80;99.90
3564;DHT22;1796;52.388;13.096;2024-02-04T09:23:05;7.80;99.90
3564;DHT22;1796;52.388;13.096;2024-02-04T09:25:32;7.90;99.90
3564;DHT22;1796;52.388;13.096;2024-02-04T09:27:59;7.90;99.90
3564;DHT22;1796;52.388;13.096;2024-02-04T09:30:26;8.00;99.90
3564;DHT22;1796;52.388;13.096;2024-02-04T09:32:53;8.00;99.90
3564;DHT22;1796;52.388;13.096;2024-02-04T09:35:21;8.00;99.90
3564;DHT22;1796;52.388;13.096;2024-02-04T09:37:48;8.00;99.90
3564;DHT22;1796;52.388;13.096;2024-02-04T09:40:15;8.00;99.90
3564;DHT22;1796;52.388;13.096;2024-02-04T09:42:42;8.10;99.90
3564;DHT22;1796;52.388;13.096;2024-02-04T09:45:10;8.10;99.90
3564;DHT22;1796;52.388;13.096;2024-02-04T09:47:40;8.20;99.90
3564;DHT22;1796;52.388;13.096;2024-02-04T09:50:09;8.20;99.90
3564;DHT22;1796;52.388;13.096;2024-02-04T09:52:40;8.30;99.90
3564;DHT22;1796;52.388;13.096;2024-02-04T09:55:07;8.40;99.90
3564;DHT22;1796;52.388;13.096;2024-02-04T09:57:36;8.30;99.90
3564;DHT22;1796;52.388;13.096;2024-02-04T10:00:03;8.40;99.90
3564;DHT22;1796;52.388;13.096;2024-02-04T10:02:32;8.40;99.90
3564;DHT22;1796;52.388;13.096;2024-02-04T10:04:59;8.50;99.90
3564;DHT22;1796;52.388;13.096;2024-02-04T10:07:26;8.50;99.90
3564;DHT22;1796;52.388;13.096;2024-02-04T10:09:55;8.50;99.90
3564;DHT22;1796;52.388;13.096;2024-02-04T10:12:22;8.50;99.90
3564;DHT22;1796;52.388;13.096;2024-02-04T10:14:49;8.50;99.90
3564;DHT22;1796;52.388;13.096;2024-02-04T10:17:16;8.60;99.90
3564;DHT22;1796;52.388;13.096;2024-02-04T10:19:42;8.70;99.90
3564;DHT22;1796;52.388;13.096;2024-02-04T10:22:09;8.70;99.90
3564;DHT22;1796;52.388;13.096;2024-02-04T10:24:36;8.80;99.90
3564;DHT22;1796;52.388;13.096;2024-02-04T10:27:05;8.80;99.90
3564;DHT22;1796;52.388;13.096;2024-02-04T10:29:32;8.90;99.90
3564;DHT22;1796;52.388;13.096;2024-02-04T10:31:59;9.00;99.90
3564;DHT22;1796;52.388;13.096;2024-02-04T10:34:26;9.10;99.90
3564;DHT22;1796;52.388;13.096;2024-02-04T10:36:56;9.00;99.90
3564;DHT22;1796;52.388;13.096;2024-02-04T10:39:23;8.90;99.90
3564;DHT22;1796;52.388;13.096;2024-02-04T10:41:51;8.90;99.90
3564;DHT22;1796;52.388;13.096;2024-02-04T10:44:21;9.00;99.90
3564;DHT22;1796;52.388;13.096;2024-02-04T10:46:49;9.00;99.90
3564;DHT22;1796;52.388;13.096;2024-02-04T10:49:18;9.10;99.90
3564;DHT22;1796;52.388;13.096;2024-02-04T10:51:46;9.10;99.90
3564;DHT22;1796;52.388;13.096;2024-02-04T10:54:15;9.10;99.90
3564;DHT22;1796;52.388;13.096;2024-02-04T10:56:42;9.20;99.90
3564;DHT22;1796;52.388;13.096;2024-02-04T10:59:10;9.20;99.90
3564;DHT22;1796;52.388;13.096;2024-02-04T11:01:39;9.20;99.90
3564;DHT22;1796;52.388;13.096;2024-02-04T11:04:08;9.20;99.90
3564;DHT22;1796;52.388;13.096;2024-02-04T11:06:37;9.20;99.90
3564;DHT22;1796;52.388;13.096;2024-02-04T11:09:04;9.30;99.90
3564;DHT22;1796;52.388;13.096;2024-02-04T11:11:32;9.30;99.90
3564;DHT22;1796;52.388;13.096;2024-02-04T11:14:02;9.30;99.90
3564;DHT22;1796;52.388;13.096;2024-02-04T11:16:47;9.30;99.90
3564;DHT22;1796;52.388;13.096;2024-02-04T11:19:26;9.20;99.90
3564;DHT22;1796;52.388;13.096;2024-02-04T11:22:14;9.20;99.90
3564;DHT22;1796;52.388;13.096;2024-02-04T11:24:59;9.20;99.90
3564;DHT22;1796;52.388;13.096;2024-02-04T11:27:29;9.20;99.90
3564;DHT22;1796;52.388;13.096;2024-02-04T11:29:57;9.20;99.90
3564;DHT22;1796;52.388;13.096;2024-02-04T11:32:25;9.20;99.90
3564;DHT22;1796;52.388;13.096;2024-02-04T11:34:53;9.20;99.90
3564;DHT22;1796;52.388;13.096;2024-02-04T11:37:21;9.20;99.90
3564;DHT22;1796;52.388;13.096;2024-02-04T11:39:50;9.30;99.90
3564;DHT22;1796;52.388;13.096;2024-02-04T11:42:17;9.40;99.90
3564;DHT22;1796;52.388;13.096;2024-02-04T11:44:44;9.40;99.90
3564;DHT22;1796;52.388;13.096;2024-02-04T11:47:11;9.40;99.90
3564;DHT22;1796;52.388;13.096;2024-02-04T11:49:55;9.30;99.90
3564;DHT22;1796;52.388;13.096;2024-02-04T11:52:22;9.30;99.90
3564;DHT22;1796;52.388;13.096;2024-02-04T11:54:49;9.30;99.90
3564;DHT22;1796;52.388;13.096;2024-02-04T11:57:16;9.40;99.90
3564;DHT22;1796;52.388;13.096;2024-02-04T11:59:43;9.30;99.90
3564;DHT22;1796;52.388;13.096;2024-02-04T12:02:11;9.30;99.90
3564;DHT22;1796;52.388;13.096;2024-02-04T12:04:39;9.30;99.90
3564;DHT22;1796;52.388;13.096;2024-02-04T12:07:08;9.30;99.90
3564;DHT22;1796;52.388;13.096;2024-02-04T12:09:35;9.20;99.90
3564;DHT22;1796;52.388;13.096;2024-02-04T12:12:03;9.20;99.90
3564;DHT22;1796;52.388;13.096;2024-02-04T12:14:30;9.20;99.90
3564;DHT22;1796;52.388;13.096;2024-02-04T12:16:58;9.20;99.90
3564;DHT22;1796;52.388;13.096;2024-02-04T12:19:25;9.20;99.90
3564;DHT22;1796;52.388;13.096;2024-02-04T12:21:52;9.20;99.90
3564;DHT22;1796;52.388;13.096;2024-02-04T12:24:23;9.20;99.90
3564;DHT22;1796;52.388;13.096;2024-02-04T12:26:50;9.10;99.90
3564;DHT22;1796;52.388;13.096;2024-02-04T12:29:17;9.10;99.90
3564;DHT22;1796;52.388;13.096;2024-02-04T12:31:44;9.20;99.90
3564;DHT22;1796;52.388;13.096;2024-02-04T12:34:13;9.20;99.90
3564;DHT22;1796;52.388;13.096;2024-02-04T12:36:39;9.20;99.90
3564;DHT22;1796;52.388;13.096;2024-02-04T12:39:10;9.20;99.90
3564;DHT22;1796;52.388;13.096;2024-02-04T12:41:39;9.20;99.90
3564;DHT22;1796;52.388;13.096;2024-02-04T12:44:05;9.20;99.90
3564;DHT22;1796;52.388;13.096;2024-02-04T12:46:32;9.20;99.90
3564;DHT22;1796;52.388;13.096;2024-02-04T12:48:59;9.10;99.90
3564;DHT22;1796;52.388;13.096;2024-02-04T12:51:27;9.20;99.90
3564;DHT22;1796;52.388;13.096;2024-02-04T12:54:05;9.10;99.90
3564;DHT22;1796;52.388;13.096;2024-02-04T12:56:44;9.20;99.90
3564;DHT22;1796;52.388;13.096;2024-02-04T12:59:25;9.20;99.90
3564;DHT22;1796;52.388;13.096;2024-02-04T13:01:53;9.20;99.90
3564;DHT22;1796;52.388;13.096;2024-02-04T13:04:21;9.20;99.90
3564;DHT22;1796;52.388;13.096;2024-02-04T13:06:48;9.20;99.90
3564;DHT22;1796;52.388;13.096;2024-02-04T13:09:17;9.20;99.90
3564;DHT22;1796;52.388;13.096;2024-02-04T13:11:47;9.20;99.90
3564;DHT22;1796;52.388;13.096;2024-02-04T13:14:14;9.20;99.90
3564;DHT22;1796;52.388;13.096;2024-02-04T13:16:42;9.20;99.90
3564;DHT22;1796;52.388;13.096;2024-02-04T13:19:09;9.10;99.90
3564;DHT22;1796;52.388;13.096;2024-02-04T13:21:35;9.10;99.90
3564;DHT22;1796;52.388;13.096;2024-02-04T13:24:02;9.00;99.90
3564;DHT22;1796;52.388;13.096;2024-02-04T13:26:29;8.90;99.90
3564;DHT22;1796;52.388;13.096;2024-02-04T13:28:58;9.00;99.90
3564;DHT22;1796;52.388;13.096;2024-02-04T13:31:24;9.00;99.90
3564;DHT22;1796;52.388;13.096;2024-02-04T13:33:51;9.00;99.90
3564;DHT22;1796;52.388;13.096;2024-02-04T13:36:18;8.90;99.90
3564;DHT22;1796;52.388;13.096;2024-02-04T13:38:45;8.90;99.90
3564;DHT22;1796;52.388;13.096;2024-02-04T13:41:12;8.90;99.90
3564;DHT22;1796;52.388;13.096;2024-02-04T13:43:39;8.90;99.90
3564;DHT22;1796;52.388;13.096;2024-02-04T13:46:07;9.00;99.90
3564;DHT22;1796;52.388;13.096;2024-02-04T13:48:33;8.90;99.90
3564;DHT22;1796;52.388;13.096;2024-02-04T13:50:59;8.90;99.90
3564;DHT22;1796;52.388;13.096;2024-02-04T13:53:28;8.90;99.90
3564;DHT22;1796;52.388;13.096;2024-02-04T13:55:56;8.90;99.90
3564;DHT22;1796;52.388;13.096;2024-02-04T13:58:23;8.90;99.90
3564;DHT22;1796;52.388;13.096;2024-02-04T14:00:52;8.80;99.90
3564;DHT22;1796;52.388;13.096;2024-02-04T14:03:20;8.90;99.90
3564;DHT22;1796;52.388;13.096;2024-02-04T14:05:47;8.80;99.90
3564;DHT22;1796;52.388;13.096;2024-02-04T14:08:15;8.80;99.90
3564;DHT22;1796;52.388;13.096;2024-02-04T14:10:42;8.80;99.90
3564;DHT22;1796;52.388;13.096;2024-02-04T14:13:09;8.80;99.90
3564;DHT22;1796;52.388;13.096;2024-02-04T14:15:37;8.80;99.90
3564;DHT22;1796;52.388;13.096;2024-02-04T14:18:04;8.70;99.90
3564;DHT22;1796;52.388;13.096;2024-02-04T14:20:33;8.70;99.90
3564;DHT22;1796;52.388;13.096;2024-02-04T14:23:00;8.70;99.90
3564;DHT22;1796;52.388;13.096;2024-02-04T14:25:27;8.70;99.90
3564;DHT22;1796;52.388;13.096;2024-02-04T14:27:54;8.70;99.90
3564;DHT22;1796;52.388;13.096;2024-02-04T14:30:21;8.80;99.90
3564;DHT22;1796;52.388;13.096;2024-02-04T14:32:47;8.80;99.90
3564;DHT22;1796;52.388;13.096;2024-02-04T14:35:14;8.80;99.90
3564;DHT22;1796;52.388;13.096;2024-02-04T14:37:43;8.70;99.90
3564;DHT22;1796;52.388;13.096;2024-02-04T14:40:10;8.70;99.90
3564;DHT22;1796;52.388;13.096;2024-02-04T14:42:37;8.70;99.90
3564;DHT22;1796;52.388;13.096;2024-02-04T14:45:06;8.70;99.90
3564;DHT22;1796;52.388;13.096;2024-02-04T14:47:33;8.70;99.90
3564;DHT22;1796;52.388;13.096;2024-02-04T14:50:00;8.70;99.90
3564;DHT22;1796;52.388;13.096;2024-02-04T14:52:28;8.80;99.90
3564;DHT22;1796;52.388;13.096;2024-02-04T14:54:56;8.70;99.90
3564;DHT22;1796;52.388;13.096;2024-02-04T14:57:23;8.70;99.90
3564;DHT22;1796;52.388;13.096;2024-02-04T14:59:50;8.70;99.90
3564;DHT22;1796;52.388;13.096;2024-02-04T15:02:17;8.70;99.90
3564;DHT22;1796;52.388;13.096;2024-02-04T15:04:43;8.70;99.90
3564;DHT22;1796;52.388;13.096;2024-02-04T15:07:10;8.70;99.90
3564;DHT22;1796;52.388;13.096;2024-02-04T15:09:38;8.60;99.90
3564;DHT22;1796;52.388;13.096;2024-02-04T15:12:07;8.70;99.90
3564;DHT22;1796;52.388;13.096;2024-02-04T15:14:35;8.80;99.90
3564;DHT22;1796;52.388;13.096;2024-02-04T15:17:03;8.70;99.90
3564;DHT22;1796;52.388;13.096;2024-02-04T15:19:30;8.60;99.90
3564;DHT22;1796;52.388;13.096;2024-02-04T15:22:01;8.60;99.90
3564;DHT22;1796;52.388;13.096;2024-02-04T15:24:29;8.60;99.90
3564;DHT22;1796;52.388;13.096;2024-02-04T15:26:57;8.60;99.90
3564;DHT22;1796;52.388;13.096;2024-02-04T15:29:34;8.60;99.90
3564;DHT22;1796;52.388;13.096;2024-02-04T15:32:02;8.60;99.90
3564;DHT22;1796;52.388;13.096;2024-02-04T15:34:30;8.60;99.90
3564;DHT22;1796;52.388;13.096;2024-02-04T15:36:58;8.60;99.90
3564;DHT22;1796;52.388;13.096;2024-02-04T15:39:25;8.60;99.90
3564;DHT22;1796;52.388;13.096;2024-02-04T15:41:52;8.60;99.90
3564;DHT22;1796;52.388;13.096;2024-02-04T15:44:19;8.50;99.90
3564;DHT22;1796;52.388;13.096;2024-02-04T15:46:49;8.50;99.90
3564;DHT22;1796;52.388;13.096;2024-02-04T15:49:18;8.50;99.90
3564;DHT22;1796;52.388;13.096;2024-02-04T15:51:46;8.50;99.90
3564;DHT22;1796;52.388;13.096;2024-02-04T15:54:14;8.50;99.90
3564;DHT22;1796;52.388;13.096;2024-02-04T15:56:42;8.60;99.90
3564;DHT22;1796;52.388;13.096;2024-02-04T15:59:12;8.50;99.90
3564;DHT22;1796;52.388;13.096;2024-02-04T16:01:39;8.50;99.90
3564;DHT22;1796;52.388;13.096;2024-02-04T16:04:09;8.50;99.90
3564;DHT22;1796;52.388;13.096;2024-02-04T16:06:36;8.50;99.90